sensor_id;sensor_type;location;lat;lon;timestamp;P1;durP1;ratioP1;P2;durP2;ratioP2
7446;SDS011;3765;47.962;7.952;2023-03-03T00:01:34;75.57;;;44.00;;
7446;SDS011;3765;47.962;7.952;2023-03-03T00:04:02;84.13;;;46.27;;
7446;SDS011;3765;47.962;7.952;2023-03-03T00:06:30;79.83;;;44.10;;
7446;SDS011;3765;47.962;7.952;2023-03-03T00:08:58;78.17;;;43.90;;
7446;SDS011;3765;47.962;7.952;2023-03-03T00:11:26;83.13;;;44.40;;
7446;SDS011;3765;47.962;7.952;2023-03-03T00:13:55;76.77;;;41.93;;
7446;SDS011;3765;47.962;7.952;2023-03-03T00:16:25;72.70;;;42.57;;
7446;SDS011;3765;47.962;7.952;2023-03-03T00:18:55;73.90;;;42.80;;
7446;SDS011;3765;47.962;7.952;2023-03-03T00:21:26;75.80;;;44.57;;
7446;SDS011;3765;47.962;7.952;2023-03-03T00:24:19;76.63;;;43.30;;
7446;SDS011;3765;47.962;7.952;2023-03-03T00:26:49;84.07;;;44.43;;
7446;SDS011;3765;47.962;7.952;2023-03-03T00:29:27;77.90;;;43.70;;
7446;SDS011;3765;47.962;7.952;2023-03-03T00:32:09;71.53;;;42.50;;
7446;SDS011;3765;47.962;7.952;2023-03-03T00:34:51;79.60;;;43.70;;
7446;SDS011;3765;47.962;7.952;2023-03-03T00:37:22;72.90;;;41.87;;
7446;SDS011;3765;47.962;7.952;2023-03-03T00:39:58;73.63;;;42.50;;
7446;SDS011;3765;47.962;7.952;2023-03-03T00:42:36;71.90;;;42.73;;
7446;SDS011;3765;47.962;7.952;2023-03-03T00:45:04;75.80;;;42.50;;
7446;SDS011;3765;47.962;7.952;2023-03-03T00:47:50;77.60;;;42.77;;
7446;SDS011;3765;47.962;7.952;2023-03-03T00:50:29;76.60;;;42.00;;
7446;SDS011;3765;47.962;7.952;2023-03-03T00:53:00;79.50;;;44.83;;
7446;SDS011;3765;47.962;7.952;2023-03-03T00:55:30;78.97;;;43.67;;
7446;SDS011;3765;47.962;7.952;2023-03-03T00:57:58;79.13;;;47.20;;
7446;SDS011;3765;47.962;7.952;2023-03-03T01:00:27;81.80;;;46.33;;
7446;SDS011;3765;47.962;7.952;2023-03-03T01:03:07;91.37;;;47.03;;
7446;SDS011;3765;47.962;7.952;2023-03-03T01:05:43;85.17;;;44.93;;
7446;SDS011;3765;47.962;7.952;2023-03-03T01:08:13;78.50;;;44.27;;
7446;SDS011;3765;47.962;7.952;2023-03-03T01:10:45;78.00;;;44.70;;
7446;SDS011;3765;47.962;7.952;2023-03-03T01:13:17;74.10;;;43.90;;
7446;SDS011;3765;47.962;7.952;2023-03-03T01:15:46;77.20;;;44.43;;
7446;SDS011;3765;47.962;7.952;2023-03-03T01:18:21;76.10;;;43.37;;
7446;SDS011;3765;47.962;7.952;2023-03-03T01:21:00;76.07;;;43.63;;
7446;SDS011;3765;47.962;7.952;2023-03-03T01:23:33;74.93;;;44.90;;
7446;SDS011;3765;47.962;7.952;2023-03-03T01:26:05;77.40;;;44.33;;
7446;SDS011;3765;47.962;7.952;2023-03-03T01:28:35;69.83;;;42.70;;
7446;SDS011;3765;47.962;7.952;2023-03-03T01:31:08;76.47;;;44.27;;
7446;SDS011;3765;47.962;7.952;2023-03-03T01:33:38;77.50;;;43.17;;
7446;SDS011;3765;47.962;7.952;2023-03-03T01:36:06;74.40;;;41.57;;
7446;SDS011;3765;47.962;7.952;2023-03-03T01:38:37;75.87;;;43.77;;
7446;SDS011;3765;47.962;7.952;2023-03-03T01:41:07;79.23;;;44.30;;
7446;SDS011;3765;47.962;7.952;2023-03-03T01:43:42;80.70;;;44.40;;
7446;SDS011;3765;47.962;7.952;2023-03-03T01:49:21;77.73;;;42.17;;
7446;SDS011;3765;47.962;7.952;2023-03-03T01:51:55;81.13;;;43.67;;
7446;SDS011;3765;47.962;7.952;2023-03-03T01:54:29;82.70;;;45.57;;
7446;SDS011;3765;47.962;7.952;2023-03-03T01:57:09;71.83;;;43.00;;
7446;SDS011;3765;47.962;7.952;2023-03-03T01:59:46;77.23;;;45.37;;
7446;SDS011;3765;47.962;7.952;2023-03-03T02:02:20;84.43;;;47.20;;
7446;SDS011;3765;47.962;7.952;2023-03-03T02:04:53;81.23;;;45.90;;
7446;SDS011;3765;47.962;7.952;2023-03-03T02:07:24;78.20;;;45.43;;
7446;SDS011;3765;47.962;7.952;2023-03-03T02:09:57;81.77;;;46.30;;
7446;SDS011;3765;47.962;7.952;2023-03-03T02:12:32;81.40;;;46.70;;
7446;SDS011;3765;47.962;7.952;2023-03-03T02:15:14;74.83;;;43.87;;
7446;SDS011;3765;47.962;7.952;2023-03-03T02:17:49;78.07;;;44.83;;
7446;SDS011;3765;47.962;7.952;2023-03-03T02:20:41;78.30;;;46.73;;
7446;SDS011;3765;47.962;7.952;2023-03-03T02:23:20;83.90;;;44.70;;
7446;SDS011;3765;47.962;7.952;2023-03-03T02:25:52;71.37;;;42.40;;
7446;SDS011;3765;47.962;7.952;2023-03-03T02:28:42;78.10;;;41.97;;
7446;SDS011;3765;47.962;7.952;2023-03-03T02:31:12;79.33;;;41.40;;
7446;SDS011;3765;47.962;7.952;2023-03-03T02:33:44;78.20;;;43.17;;
7446;SDS011;3765;47.962;7.952;2023-03-03T02:36:17;70.43;;;44.00;;
7446;SDS011;3765;47.962;7.952;2023-03-03T02:38:48;75.10;;;43.70;;
7446;SDS011;3765;47.962;7.952;2023-03-03T02:41:28;78.40;;;44.10;;
7446;SDS011;3765;47.962;7.952;2023-03-03T02:44:03;79.90;;;43.10;;
7446;SDS011;3765;47.962;7.952;2023-03-03T02:46:33;75.87;;;44.20;;
7446;SDS011;3765;47.962;7.952;2023-03-03T02:49:03;85.30;;;44.33;;
7446;SDS011;3765;47.962;7.952;2023-03-03T02:51:35;89.50;;;43.00;;
7446;SDS011;3765;47.962;7.952;2023-03-03T02:54:09;79.33;;;42.63;;
7446;SDS011;3765;47.962;7.952;2023-03-03T02:56:48;79.77;;;44.73;;
7446;SDS011;3765;47.962;7.952;2023-03-03T02:59:16;73.23;;;43.43;;
7446;SDS011;3765;47.962;7.952;2023-03-03T03:01:46;75.13;;;42.77;;
7446;SDS011;3765;47.962;7.952;2023-03-03T03:04:24;73.07;;;41.97;;
7446;SDS011;3765;47.962;7.952;2023-03-03T03:06:55;72.93;;;42.23;;
7446;SDS011;3765;47.962;7.952;2023-03-03T03:09:24;72.70;;;42.80;;
7446;SDS011;3765;47.962;7.952;2023-03-03T03:11:59;75.70;;;41.27;;
7446;SDS011;3765;47.962;7.952;2023-03-03T03:14:30;81.97;;;44.87;;
7446;SDS011;3765;47.962;7.952;2023-03-03T03:17:01;82.17;;;45.23;;
7446;SDS011;3765;47.962;7.952;2023-03-03T03:19:33;82.73;;;44.93;;
7446;SDS011;3765;47.962;7.952;2023-03-03T03:22:02;80.57;;;44.90;;
7446;SDS011;3765;47.962;7.952;2023-03-03T03:24:33;77.97;;;43.83;;
7446;SDS011;3765;47.962;7.952;2023-03-03T03:27:02;72.27;;;41.60;;
7446;SDS011;3765;47.962;7.952;2023-03-03T03:29:30;73.13;;;42.20;;
7446;SDS011;3765;47.962;7.952;2023-03-03T03:32:00;73.63;;;41.77;;
7446;SDS011;3765;47.962;7.952;2023-03-03T03:34:30;78.40;;;43.27;;
7446;SDS011;3765;47.962;7.952;2023-03-03T03:36:59;79.13;;;43.80;;
7446;SDS011;3765;47.962;7.952;2023-03-03T03:39:31;74.43;;;41.90;;
7446;SDS011;3765;47.962;7.952;2023-03-03T03:41:59;74.20;;;41.93;;
7446;SDS011;3765;47.962;7.952;2023-03-03T03:44:30;73.70;;;42.70;;
7446;SDS011;3765;47.962;7.952;2023-03-03T03:46:59;74.97;;;40.83;;
7446;SDS011;3765;47.962;7.952;2023-03-03T03:49:31;73.47;;;43.17;;
7446;SDS011;3765;47.962;7.952;2023-03-03T03:52:00;71.97;;;41.83;;
7446;SDS011;3765;47.962;7.952;2023-03-03T03:54:30;76.83;;;42.43;;
7446;SDS011;3765;47.962;7.952;2023-03-03T03:57:00;71.00;;;42.53;;
7446;SDS011;3765;47.962;7.952;2023-03-03T03:59:34;72.80;;;41.23;;
7446;SDS011;3765;47.962;7.952;2023-03-03T04:02:02;72.70;;;41.47;;
7446;SDS011;3765;47.962;7.952;2023-03-03T04:04:34;68.83;;;40.40;;
7446;SDS011;3765;47.962;7.952;2023-03-03T04:07:02;70.40;;;40.10;;
7446;SDS011;3765;47.962;7.952;2023-03-03T04:09:37;73.37;;;42.20;;
7446;SDS011;3765;47.962;7.952;2023-03-03T04:12:05;77.17;;;42.97;;
7446;SDS011;3765;47.962;7.952;2023-03-03T04:14:37;75.77;;;43.67;;
7446;SDS011;3765;47.962;7.952;2023-03-03T04:17:06;81.30;;;43.17;;
7446;SDS011;3765;47.962;7.952;2023-03-03T04:19:35;83.23;;;45.00;;
7446;SDS011;3765;47.962;7.952;2023-03-03T04:22:05;80.63;;;43.90;;
7446;SDS011;3765;47.962;7.952;2023-03-03T04:24:34;81.53;;;46.97;;
7446;SDS011;3765;47.962;7.952;2023-03-03T04:27:03;79.80;;;43.93;;
7446;SDS011;3765;47.962;7.952;2023-03-03T04:29:32;76.87;;;43.70;;
7446;SDS011;3765;47.962;7.952;2023-03-03T04:32:01;68.40;;;42.20;;
7446;SDS011;3765;47.962;7.952;2023-03-03T04:34:32;83.13;;;43.10;;
7446;SDS011;3765;47.962;7.952;2023-03-03T04:37:00;84.20;;;42.27;;
7446;SDS011;3765;47.962;7.952;2023-03-03T04:39:29;79.20;;;43.73;;
7446;SDS011;3765;47.962;7.952;2023-03-03T04:41:59;73.93;;;41.90;;
7446;SDS011;3765;47.962;7.952;2023-03-03T04:44:30;78.87;;;44.07;;
7446;SDS011;3765;47.962;7.952;2023-03-03T04:46:59;77.27;;;43.90;;
7446;SDS011;3765;47.962;7.952;2023-03-03T04:49:29;81.57;;;43.77;;
7446;SDS011;3765;47.962;7.952;2023-03-03T04:51:59;77.97;;;43.43;;
7446;SDS011;3765;47.962;7.952;2023-03-03T04:54:28;73.63;;;42.40;;
7446;SDS011;3765;47.962;7.952;2023-03-03T04:56:59;80.00;;;43.93;;
7446;SDS011;3765;47.962;7.952;2023-03-03T04:59:31;75.93;;;42.53;;
7446;SDS011;3765;47.962;7.952;2023-03-03T05:02:06;75.37;;;43.90;;
7446;SDS011;3765;47.962;7.952;2023-03-03T05:04:38;76.90;;;43.07;;
7446;SDS011;3765;47.962;7.952;2023-03-03T05:07:09;76.57;;;42.40;;
7446;SDS011;3765;47.962;7.952;2023-03-03T05:09:38;86.03;;;43.23;;
7446;SDS011;3765;47.962;7.952;2023-03-03T05:12:08;84.37;;;44.50;;
7446;SDS011;3765;47.962;7.952;2023-03-03T05:14:36;84.67;;;45.93;;
7446;SDS011;3765;47.962;7.952;2023-03-03T05:17:04;77.33;;;41.60;;
7446;SDS011;3765;47.962;7.952;2023-03-03T05:19:34;80.40;;;43.03;;
7446;SDS011;3765;47.962;7.952;2023-03-03T05:22:06;72.57;;;41.67;;
7446;SDS011;3765;47.962;7.952;2023-03-03T05:24:36;72.20;;;42.13;;
7446;SDS011;3765;47.962;7.952;2023-03-03T05:27:04;84.43;;;43.80;;
7446;SDS011;3765;47.962;7.952;2023-03-03T05:29:34;77.10;;;42.40;;
7446;SDS011;3765;47.962;7.952;2023-03-03T05:32:02;79.27;;;43.97;;
7446;SDS011;3765;47.962;7.952;2023-03-03T05:34:30;78.73;;;43.03;;
7446;SDS011;3765;47.962;7.952;2023-03-03T05:37:00;76.00;;;43.00;;
7446;SDS011;3765;47.962;7.952;2023-03-03T05:39:33;77.13;;;43.13;;
7446;SDS011;3765;47.962;7.952;2023-03-03T05:42:01;75.00;;;43.57;;
7446;SDS011;3765;47.962;7.952;2023-03-03T05:44:30;71.57;;;41.53;;
7446;SDS011;3765;47.962;7.952;2023-03-03T05:47:00;75.67;;;42.90;;
7446;SDS011;3765;47.962;7.952;2023-03-03T05:49:30;70.50;;;43.40;;
7446;SDS011;3765;47.962;7.952;2023-03-03T05:51:59;71.07;;;41.27;;
7446;SDS011;3765;47.962;7.952;2023-03-03T05:54:29;75.30;;;44.87;;
7446;SDS011;3765;47.962;7.952;2023-03-03T05:57:10;86.57;;;44.10;;
7446;SDS011;3765;47.962;7.952;2023-03-03T05:59:42;88.93;;;44.00;;
7446;SDS011;3765;47.962;7.952;2023-03-03T06:02:10;83.20;;;43.83;;
7446;SDS011;3765;47.962;7.952;2023-03-03T06:04:38;75.47;;;43.27;;
7446;SDS011;3765;47.962;7.952;2023-03-03T06:07:07;80.93;;;42.70;;
7446;SDS011;3765;47.962;7.952;2023-03-03T06:09:35;70.23;;;41.30;;
7446;SDS011;3765;47.962;7.952;2023-03-03T06:12:05;72.50;;;44.20;;
7446;SDS011;3765;47.962;7.952;2023-03-03T06:14:33;70.07;;;41.77;;
7446;SDS011;3765;47.962;7.952;2023-03-03T06:17:02;72.67;;;41.77;;
7446;SDS011;3765;47.962;7.952;2023-03-03T06:19:31;79.87;;;43.30;;
7446;SDS011;3765;47.962;7.952;2023-03-03T06:22:02;89.33;;;44.27;;
7446;SDS011;3765;47.962;7.952;2023-03-03T06:24:32;76.07;;;43.53;;
7446;SDS011;3765;47.962;7.952;2023-03-03T06:27:00;71.03;;;42.00;;
7446;SDS011;3765;47.962;7.952;2023-03-03T06:29:31;76.73;;;44.67;;
7446;SDS011;3765;47.962;7.952;2023-03-03T06:31:59;83.27;;;43.53;;
7446;SDS011;3765;47.962;7.952;2023-03-03T06:34:31;80.40;;;44.30;;
7446;SDS011;3765;47.962;7.952;2023-03-03T06:37:01;72.77;;;42.80;;
7446;SDS011;3765;47.962;7.952;2023-03-03T06:39:33;74.90;;;43.53;;
7446;SDS011;3765;47.962;7.952;2023-03-03T06:42:02;80.13;;;45.50;;
7446;SDS011;3765;47.962;7.952;2023-03-03T06:44:37;75.27;;;44.17;;
7446;SDS011;3765;47.962;7.952;2023-03-03T06:47:05;76.73;;;42.87;;
7446;SDS011;3765;47.962;7.952;2023-03-03T06:49:35;75.93;;;43.87;;
7446;SDS011;3765;47.962;7.952;2023-03-03T06:52:09;80.67;;;44.43;;
7446;SDS011;3765;47.962;7.952;2023-03-03T06:54:43;82.73;;;44.70;;
7446;SDS011;3765;47.962;7.952;2023-03-03T06:57:17;84.60;;;48.10;;
7446;SDS011;3765;47.962;7.952;2023-03-03T06:59:58;80.60;;;45.87;;
7446;SDS011;3765;47.962;7.952;2023-03-03T07:02:39;82.70;;;48.20;;
7446;SDS011;3765;47.962;7.952;2023-03-03T07:07:41;84.77;;;47.77;;
7446;SDS011;3765;47.962;7.952;2023-03-03T07:10:17;83.53;;;49.67;;
7446;SDS011;3765;47.962;7.952;2023-03-03T07:12:55;84.17;;;49.07;;
7446;SDS011;3765;47.962;7.952;2023-03-03T07:15:33;83.63;;;47.13;;
7446;SDS011;3765;47.962;7.952;2023-03-03T07:18:04;81.90;;;46.90;;
7446;SDS011;3765;47.962;7.952;2023-03-03T07:20:48;85.70;;;48.87;;
7446;SDS011;3765;47.962;7.952;2023-03-03T07:23:17;86.30;;;48.87;;
7446;SDS011;3765;47.962;7.952;2023-03-03T07:25:50;87.13;;;48.47;;
7446;SDS011;3765;47.962;7.952;2023-03-03T07:28:25;90.70;;;48.13;;
7446;SDS011;3765;47.962;7.952;2023-03-03T07:30:57;104.30;;;57.60;;
7446;SDS011;3765;47.962;7.952;2023-03-03T07:33:30;82.73;;;48.77;;
7446;SDS011;3765;47.962;7.952;2023-03-03T07:36:17;82.97;;;49.67;;
7446;SDS011;3765;47.962;7.952;2023-03-03T07:38:53;81.97;;;46.40;;
7446;SDS011;3765;47.962;7.952;2023-03-03T07:41:23;75.47;;;45.23;;
7446;SDS011;3765;47.962;7.952;2023-03-03T07:43:54;82.30;;;46.60;;
7446;SDS011;3765;47.962;7.952;2023-03-03T07:46:30;85.00;;;46.70;;
7446;SDS011;3765;47.962;7.952;2023-03-03T07:49:12;86.57;;;46.40;;
7446;SDS011;3765;47.962;7.952;2023-03-03T07:51:51;78.83;;;45.50;;
7446;SDS011;3765;47.962;7.952;2023-03-03T07:54:28;72.87;;;45.43;;
7446;SDS011;3765;47.962;7.952;2023-03-03T07:57:11;81.13;;;45.40;;
7446;SDS011;3765;47.962;7.952;2023-03-03T07:59:52;77.87;;;44.70;;
7446;SDS011;3765;47.962;7.952;2023-03-03T08:02:36;75.30;;;45.27;;
7446;SDS011;3765;47.962;7.952;2023-03-03T08:11:00;74.03;;;44.33;;
7446;SDS011;3765;47.962;7.952;2023-03-03T08:13:35;80.83;;;42.23;;
7446;SDS011;3765;47.962;7.952;2023-03-03T08:16:20;72.53;;;44.20;;
7446;SDS011;3765;47.962;7.952;2023-03-03T08:19:13;74.23;;;43.50;;
7446;SDS011;3765;47.962;7.952;2023-03-03T08:21:43;84.97;;;45.40;;
7446;SDS011;3765;47.962;7.952;2023-03-03T08:24:11;79.80;;;44.53;;
7446;SDS011;3765;47.962;7.952;2023-03-03T08:26:44;81.30;;;45.30;;
7446;SDS011;3765;47.962;7.952;2023-03-03T08:29:12;79.57;;;45.33;;
7446;SDS011;3765;47.962;7.952;2023-03-03T08:31:40;77.50;;;44.70;;
7446;SDS011;3765;47.962;7.952;2023-03-03T08:37:00;83.80;;;45.57;;
7446;SDS011;3765;47.962;7.952;2023-03-03T08:39:29;80.33;;;47.77;;
7446;SDS011;3765;47.962;7.952;2023-03-03T08:41:58;82.57;;;47.50;;
7446;SDS011;3765;47.962;7.952;2023-03-03T08:44:29;81.77;;;44.80;;
7446;SDS011;3765;47.962;7.952;2023-03-03T08:47:00;81.37;;;47.00;;
7446;SDS011;3765;47.962;7.952;2023-03-03T08:49:32;83.53;;;48.97;;
7446;SDS011;3765;47.962;7.952;2023-03-03T08:52:00;85.37;;;47.73;;
7446;SDS011;3765;47.962;7.952;2023-03-03T08:54:32;84.47;;;48.37;;
7446;SDS011;3765;47.962;7.952;2023-03-03T08:57:04;80.77;;;46.90;;
7446;SDS011;3765;47.962;7.952;2023-03-03T08:59:33;79.30;;;46.43;;
7446;SDS011;3765;47.962;7.952;2023-03-03T09:02:05;73.07;;;43.33;;
7446;SDS011;3765;47.962;7.952;2023-03-03T09:04:41;76.50;;;44.17;;
7446;SDS011;3765;47.962;7.952;2023-03-03T09:07:10;78.93;;;46.10;;
7446;SDS011;3765;47.962;7.952;2023-03-03T09:09:41;81.73;;;46.40;;
7446;SDS011;3765;47.962;7.952;2023-03-03T09:12:14;76.50;;;44.50;;
7446;SDS011;3765;47.962;7.952;2023-03-03T09:14:45;83.87;;;46.30;;
7446;SDS011;3765;47.962;7.952;2023-03-03T09:17:18;76.87;;;46.97;;
7446;SDS011;3765;47.962;7.952;2023-03-03T09:20:10;86.53;;;47.10;;
7446;SDS011;3765;47.962;7.952;2023-03-03T09:26:25;89.20;;;45.97;;
7446;SDS011;3765;47.962;7.952;2023-03-03T09:29:08;85.40;;;44.40;;
7446;SDS011;3765;47.962;7.952;2023-03-03T09:31:53;80.10;;;46.60;;
7446;SDS011;3765;47.962;7.952;2023-03-03T09:34:29;78.17;;;47.67;;
7446;SDS011;3765;47.962;7.952;2023-03-03T09:37:14;83.73;;;46.03;;
7446;SDS011;3765;47.962;7.952;2023-03-03T09:39:49;81.67;;;45.00;;
7446;SDS011;3765;47.962;7.952;2023-03-03T09:42:37;84.00;;;45.80;;
7446;SDS011;3765;47.962;7.952;2023-03-03T09:45:28;79.20;;;46.53;;
7446;SDS011;3765;47.962;7.952;2023-03-03T09:48:24;80.00;;;44.53;;
7446;SDS011;3765;47.962;7.952;2023-03-03T09:51:04;98.27;;;46.10;;
7446;SDS011;3765;47.962;7.952;2023-03-03T09:53:49;78.80;;;45.43;;
7446;SDS011;3765;47.962;7.952;2023-03-03T09:56:28;79.17;;;45.50;;
7446;SDS011;3765;47.962;7.952;2023-03-03T09:59:08;75.83;;;44.13;;
7446;SDS011;3765;47.962;7.952;2023-03-03T10:01:50;79.67;;;46.13;;
7446;SDS011;3765;47.962;7.952;2023-03-03T10:04:43;82.53;;;47.40;;
7446;SDS011;3765;47.962;7.952;2023-03-03T10:07:38;89.37;;;48.37;;
7446;SDS011;3765;47.962;7.952;2023-03-03T10:13:29;83.63;;;46.53;;
7446;SDS011;3765;47.962;7.952;2023-03-03T10:16:12;83.33;;;45.70;;
7446;SDS011;3765;47.962;7.952;2023-03-03T10:19:00;79.93;;;45.03;;
7446;SDS011;3765;47.962;7.952;2023-03-03T10:21:33;86.03;;;45.03;;
7446;SDS011;3765;47.962;7.952;2023-03-03T10:24:10;73.60;;;45.70;;
7446;SDS011;3765;47.962;7.952;2023-03-03T10:26:55;77.60;;;45.57;;
7446;SDS011;3765;47.962;7.952;2023-03-03T10:32:34;83.03;;;46.20;;
7446;SDS011;3765;47.962;7.952;2023-03-03T10:35:14;82.83;;;46.33;;
7446;SDS011;3765;47.962;7.952;2023-03-03T10:37:55;73.20;;;44.57;;
7446;SDS011;3765;47.962;7.952;2023-03-03T10:40:41;79.57;;;46.40;;
7446;SDS011;3765;47.962;7.952;2023-03-03T10:43:16;77.00;;;45.80;;
7446;SDS011;3765;47.962;7.952;2023-03-03T10:46:09;76.10;;;47.23;;
7446;SDS011;3765;47.962;7.952;2023-03-03T10:48:51;72.43;;;44.30;;
7446;SDS011;3765;47.962;7.952;2023-03-03T10:51:42;77.67;;;46.10;;
7446;SDS011;3765;47.962;7.952;2023-03-03T10:54:25;78.90;;;46.37;;
7446;SDS011;3765;47.962;7.952;2023-03-03T10:57:06;76.60;;;44.73;;
7446;SDS011;3765;47.962;7.952;2023-03-03T10:59:44;73.23;;;45.07;;
7446;SDS011;3765;47.962;7.952;2023-03-03T11:02:34;75.47;;;44.87;;
7446;SDS011;3765;47.962;7.952;2023-03-03T11:05:13;86.13;;;45.80;;
7446;SDS011;3765;47.962;7.952;2023-03-03T11:07:56;73.73;;;45.47;;
7446;SDS011;3765;47.962;7.952;2023-03-03T11:10:29;78.30;;;47.03;;
7446;SDS011;3765;47.962;7.952;2023-03-03T11:13:16;77.23;;;46.27;;
7446;SDS011;3765;47.962;7.952;2023-03-03T11:15:53;85.70;;;46.70;;
7446;SDS011;3765;47.962;7.952;2023-03-03T11:18:46;74.87;;;45.03;;
7446;SDS011;3765;47.962;7.952;2023-03-03T11:21:28;77.50;;;45.57;;
7446;SDS011;3765;47.962;7.952;2023-03-03T11:24:01;80.70;;;47.30;;
7446;SDS011;3765;47.962;7.952;2023-03-03T11:26:51;93.53;;;47.03;;
7446;SDS011;3765;47.962;7.952;2023-03-03T11:29:41;80.13;;;47.63;;
7446;SDS011;3765;47.962;7.952;2023-03-03T11:32:18;78.23;;;49.00;;
7446;SDS011;3765;47.962;7.952;2023-03-03T11:34:57;94.67;;;47.60;;
7446;SDS011;3765;47.962;7.952;2023-03-03T11:37:34;85.50;;;46.20;;
7446;SDS011;3765;47.962;7.952;2023-03-03T11:40:11;83.30;;;48.47;;
7446;SDS011;3765;47.962;7.952;2023-03-03T11:42:46;76.97;;;48.07;;
7446;SDS011;3765;47.962;7.952;2023-03-03T11:45:28;79.93;;;48.77;;
7446;SDS011;3765;47.962;7.952;2023-03-03T11:48:03;77.50;;;48.90;;
7446;SDS011;3765;47.962;7.952;2023-03-03T11:50:40;82.80;;;49.43;;
7446;SDS011;3765;47.962;7.952;2023-03-03T11:53:20;109.67;;;50.30;;
7446;SDS011;3765;47.962;7.952;2023-03-03T11:56:06;86.63;;;51.40;;
7446;SDS011;3765;47.962;7.952;2023-03-03T11:58:46;91.57;;;50.47;;
7446;SDS011;3765;47.962;7.952;2023-03-03T12:01:21;81.03;;;50.47;;
7446;SDS011;3765;47.962;7.952;2023-03-03T12:03:55;81.27;;;49.53;;
7446;SDS011;3765;47.962;7.952;2023-03-03T12:06:30;77.37;;;48.73;;
7446;SDS011;3765;47.962;7.952;2023-03-03T12:09:13;82.00;;;50.03;;
7446;SDS011;3765;47.962;7.952;2023-03-03T12:12:05;77.37;;;49.03;;
7446;SDS011;3765;47.962;7.952;2023-03-03T12:14:39;82.40;;;48.33;;
7446;SDS011;3765;47.962;7.952;2023-03-03T12:17:34;80.73;;;48.23;;
7446;SDS011;3765;47.962;7.952;2023-03-03T12:20:17;84.80;;;48.00;;
7446;SDS011;3765;47.962;7.952;2023-03-03T12:22:55;73.47;;;48.97;;
7446;SDS011;3765;47.962;7.952;2023-03-03T12:25:34;73.00;;;46.67;;
7446;SDS011;3765;47.962;7.952;2023-03-03T12:28:08;82.30;;;47.60;;
7446;SDS011;3765;47.962;7.952;2023-03-03T12:33:53;81.60;;;49.03;;
7446;SDS011;3765;47.962;7.952;2023-03-03T12:36:35;73.67;;;45.63;;
7446;SDS011;3765;47.962;7.952;2023-03-03T12:39:21;81.00;;;45.63;;
7446;SDS011;3765;47.962;7.952;2023-03-03T12:42:02;78.37;;;47.50;;
7446;SDS011;3765;47.962;7.952;2023-03-03T12:44:40;86.50;;;45.00;;
7446;SDS011;3765;47.962;7.952;2023-03-03T12:47:14;78.80;;;48.20;;
7446;SDS011;3765;47.962;7.952;2023-03-03T12:49:51;79.93;;;47.07;;
7446;SDS011;3765;47.962;7.952;2023-03-03T12:52:36;87.60;;;48.20;;
7446;SDS011;3765;47.962;7.952;2023-03-03T12:55:16;71.63;;;46.70;;
7446;SDS011;3765;47.962;7.952;2023-03-03T12:57:54;86.63;;;48.60;;
7446;SDS011;3765;47.962;7.952;2023-03-03T13:00:30;79.80;;;47.87;;
7446;SDS011;3765;47.962;7.952;2023-03-03T13:03:12;101.47;;;50.57;;
7446;SDS011;3765;47.962;7.952;2023-03-03T13:05:58;83.80;;;47.60;;
7446;SDS011;3765;47.962;7.952;2023-03-03T13:08:37;95.93;;;52.60;;
7446;SDS011;3765;47.962;7.952;2023-03-03T13:11:23;90.40;;;48.20;;
7446;SDS011;3765;47.962;7.952;2023-03-03T13:14:04;80.03;;;47.77;;
7446;SDS011;3765;47.962;7.952;2023-03-03T13:16:42;77.77;;;47.67;;
7446;SDS011;3765;47.962;7.952;2023-03-03T13:19:16;87.47;;;47.40;;
7446;SDS011;3765;47.962;7.952;2023-03-03T13:21:50;75.33;;;48.07;;
7446;SDS011;3765;47.962;7.952;2023-03-03T13:24:22;84.37;;;47.97;;
7446;SDS011;3765;47.962;7.952;2023-03-03T13:26:56;83.53;;;50.50;;
7446;SDS011;3765;47.962;7.952;2023-03-03T13:29:29;80.60;;;47.93;;
7446;SDS011;3765;47.962;7.952;2023-03-03T13:32:02;77.97;;;48.57;;
7446;SDS011;3765;47.962;7.952;2023-03-03T13:34:39;97.60;;;47.23;;
7446;SDS011;3765;47.962;7.952;2023-03-03T13:37:14;81.00;;;50.57;;
7446;SDS011;3765;47.962;7.952;2023-03-03T13:39:52;89.20;;;48.60;;
7446;SDS011;3765;47.962;7.952;2023-03-03T13:42:26;76.27;;;47.50;;
7446;SDS011;3765;47.962;7.952;2023-03-03T13:45:05;83.73;;;45.80;;
7446;SDS011;3765;47.962;7.952;2023-03-03T13:47:42;91.93;;;58.30;;
7446;SDS011;3765;47.962;7.952;2023-03-03T13:50:18;72.63;;;46.70;;
7446;SDS011;3765;47.962;7.952;2023-03-03T13:52:53;81.40;;;49.67;;
7446;SDS011;3765;47.962;7.952;2023-03-03T13:55:31;73.70;;;48.30;;
7446;SDS011;3765;47.962;7.952;2023-03-03T13:58:07;72.80;;;47.13;;
7446;SDS011;3765;47.962;7.952;2023-03-03T14:00:48;103.83;;;50.30;;
7446;SDS011;3765;47.962;7.952;2023-03-03T14:03:33;79.00;;;47.90;;
7446;SDS011;3765;47.962;7.952;2023-03-03T14:06:17;83.50;;;49.70;;
7446;SDS011;3765;47.962;7.952;2023-03-03T14:11:59;73.40;;;48.80;;
7446;SDS011;3765;47.962;7.952;2023-03-03T14:14:39;76.50;;;51.67;;
7446;SDS011;3765;47.962;7.952;2023-03-03T14:17:14;78.70;;;49.63;;
7446;SDS011;3765;47.962;7.952;2023-03-03T14:19:56;76.63;;;47.40;;
7446;SDS011;3765;47.962;7.952;2023-03-03T14:22:36;75.73;;;49.77;;
7446;SDS011;3765;47.962;7.952;2023-03-03T14:25:16;79.07;;;46.93;;
7446;SDS011;3765;47.962;7.952;2023-03-03T14:27:53;80.60;;;50.20;;
7446;SDS011;3765;47.962;7.952;2023-03-03T14:30:30;77.73;;;49.77;;
7446;SDS011;3765;47.962;7.952;2023-03-03T14:33:01;79.73;;;48.60;;
7446;SDS011;3765;47.962;7.952;2023-03-03T14:35:43;87.40;;;49.10;;
7446;SDS011;3765;47.962;7.952;2023-03-03T14:38:16;74.87;;;48.00;;
7446;SDS011;3765;47.962;7.952;2023-03-03T14:40:46;77.80;;;48.20;;
7446;SDS011;3765;47.962;7.952;2023-03-03T14:43:19;89.67;;;48.67;;
7446;SDS011;3765;47.962;7.952;2023-03-03T14:45:52;80.90;;;51.10;;
7446;SDS011;3765;47.962;7.952;2023-03-03T14:48:22;78.97;;;49.00;;
7446;SDS011;3765;47.962;7.952;2023-03-03T14:50:53;74.50;;;47.57;;
7446;SDS011;3765;47.962;7.952;2023-03-03T14:53:32;79.87;;;50.17;;
7446;SDS011;3765;47.962;7.952;2023-03-03T14:56:15;88.43;;;50.07;;
7446;SDS011;3765;47.962;7.952;2023-03-03T14:58:50;86.53;;;50.13;;
7446;SDS011;3765;47.962;7.952;2023-03-03T15:01:28;77.87;;;48.10;;
7446;SDS011;3765;47.962;7.952;2023-03-03T15:04:00;77.17;;;47.33;;
7446;SDS011;3765;47.962;7.952;2023-03-03T15:06:34;84.50;;;49.83;;
7446;SDS011;3765;47.962;7.952;2023-03-03T15:12:01;77.00;;;48.67;;
7446;SDS011;3765;47.962;7.952;2023-03-03T15:14:43;78.93;;;51.60;;
7446;SDS011;3765;47.962;7.952;2023-03-03T15:17:19;79.27;;;48.97;;
7446;SDS011;3765;47.962;7.952;2023-03-03T15:20:03;83.33;;;49.10;;
7446;SDS011;3765;47.962;7.952;2023-03-03T15:22:45;82.63;;;53.73;;
7446;SDS011;3765;47.962;7.952;2023-03-03T15:25:21;85.10;;;49.63;;
7446;SDS011;3765;47.962;7.952;2023-03-03T15:31:12;80.80;;;51.13;;
7446;SDS011;3765;47.962;7.952;2023-03-03T15:33:54;86.37;;;50.47;;
7446;SDS011;3765;47.962;7.952;2023-03-03T15:36:33;77.47;;;49.57;;
7446;SDS011;3765;47.962;7.952;2023-03-03T15:39:10;87.77;;;51.03;;
7446;SDS011;3765;47.962;7.952;2023-03-03T15:41:50;77.30;;;51.93;;
7446;SDS011;3765;47.962;7.952;2023-03-03T15:44:27;85.20;;;51.60;;
7446;SDS011;3765;47.962;7.952;2023-03-03T15:47:17;78.53;;;50.87;;
7446;SDS011;3765;47.962;7.952;2023-03-03T15:50:14;84.90;;;50.77;;
7446;SDS011;3765;47.962;7.952;2023-03-03T15:52:55;85.10;;;50.97;;
7446;SDS011;3765;47.962;7.952;2023-03-03T15:55:34;81.83;;;50.47;;
7446;SDS011;3765;47.962;7.952;2023-03-03T15:58:20;95.93;;;58.90;;
7446;SDS011;3765;47.962;7.952;2023-03-03T16:01:16;87.10;;;52.20;;
7446;SDS011;3765;47.962;7.952;2023-03-03T16:03:52;100.70;;;52.73;;
7446;SDS011;3765;47.962;7.952;2023-03-03T16:06:29;89.70;;;53.60;;
7446;SDS011;3765;47.962;7.952;2023-03-03T16:09:06;86.60;;;54.60;;
7446;SDS011;3765;47.962;7.952;2023-03-03T16:11:43;82.90;;;52.40;;
7446;SDS011;3765;47.962;7.952;2023-03-03T16:14:21;82.00;;;51.70;;